sensor_id;sensor_type;location;lat;lon;timestamp;temperature;humidity
47660;DHT22;33403;43.608;1.458;2023-08-06T00:02:23;19.30;99.90
47660;DHT22;33403;43.608;1.458;2023-08-06T00:04:48;19.30;99.90
47660;DHT22;33403;43.608;1.458;2023-08-06T00:07:14;19.30;99.90
47660;DHT22;33403;43.608;1.458;2023-08-06T00:09:40;19.30;99.90
47660;DHT22;33403;43.608;1.458;2023-08-06T00:12:05;19.30;99.90
47660;DHT22;33403;43.608;1.458;2023-08-06T00:14:31;19.30;99.90
47660;DHT22;33403;43.608;1.458;2023-08-06T00:16:57;19.30;99.90
47660;DHT22;33403;43.608;1.458;2023-08-06T00:19:23;19.30;99.90
47660;DHT22;33403;43.608;1.458;2023-08-06T00:21:49;19.40;99.90
47660;DHT22;33403;43.608;1.458;2023-08-06T00:24:14;19.40;99.90
47660;DHT22;33403;43.608;1.458;2023-08-06T00:26:40;19.30;99.90
47660;DHT22;33403;43.608;1.458;2023-08-06T00:29:05;19.30;99.90
47660;DHT22;33403;43.608;1.458;2023-08-06T00:31:31;19.30;99.90
47660;DHT22;33403;43.608;1.458;2023-08-06T00:33:57;19.30;99.90
47660;DHT22;33403;43.608;1.458;2023-08-06T00:36:22;19.20;99.90
47660;DHT22;33403;43.608;1.458;2023-08-06T00:38:48;19.10;99.90
47660;DHT22;33403;43.608;1.458;2023-08-06T00:41:14;19.00;99.90
47660;DHT22;33403;43.608;1.458;2023-08-06T00:43:39;19.10;99.90
47660;DHT22;33403;43.608;1.458;2023-08-06T00:46:05;19.10;99.90
47660;DHT22;33403;43.608;1.458;2023-08-06T00:48:31;19.20;99.90
47660;DHT22;33403;43.608;1.458;2023-08-06T00:50:57;19.20;99.90
47660;DHT22;33403;43.608;1.458;2023-08-06T00:53:23;19.10;99.90
47660;DHT22;33403;43.608;1.458;2023-08-06T00:55:49;19.10;99.90
47660;DHT22;33403;43.608;1.458;2023-08-06T00:58:16;19.00;99.90
47660;DHT22;33403;43.608;1.458;2023-08-06T01:00:41;19.00;99.90
47660;DHT22;33403;43.608;1.458;2023-08-06T01:03:08;19.00;99.90
47660;DHT22;33403;43.608;1.458;2023-08-06T01:05:34;19.00;99.90
47660;DHT22;33403;43.608;1.458;2023-08-06T01:09:13;18.90;99.90
47660;DHT22;33403;43.608;1.458;2023-08-06T01:14:18;18.90;99.90
47660;DHT22;33403;43.608;1.458;2023-08-06T01:16:49;19.00;99.90
47660;DHT22;33403;43.608;1.458;2023-08-06T01:19:16;19.00;99.90
47660;DHT22;33403;43.608;1.458;2023-08-06T01:21:42;18.90;99.90
47660;DHT22;33403;43.608;1.458;2023-08-06T01:24:08;18.90;99.90
47660;DHT22;33403;43.608;1.458;2023-08-06T01:31:37;18.80;99.90
47660;DHT22;33403;43.608;1.458;2023-08-06T01:34:06;18.90;99.90
47660;DHT22;33403;43.608;1.458;2023-08-06T01:36:32;18.90;99.90
47660;DHT22;33403;43.608;1.458;2023-08-06T01:38:59;18.90;99.90
47660;DHT22;33403;43.608;1.458;2023-08-06T01:41:25;18.90;99.90
47660;DHT22;33403;43.608;1.458;2023-08-06T01:43:51;18.80;99.90
47660;DHT22;33403;43.608;1.458;2023-08-06T01:46:16;18.90;99.90
47660;DHT22;33403;43.608;1.458;2023-08-06T01:48:43;18.70;99.90
47660;DHT22;33403;43.608;1.458;2023-08-06T01:51:08;18.70;99.90
47660;DHT22;33403;43.608;1.458;2023-08-06T01:53:34;18.70;99.90
47660;DHT22;33403;43.608;1.458;2023-08-06T01:56:00;18.80;99.90
47660;DHT22;33403;43.608;1.458;2023-08-06T01:58:25;18.80;99.90
47660;DHT22;33403;43.608;1.458;2023-08-06T02:00:51;18.80;99.90
47660;DHT22;33403;43.608;1.458;2023-08-06T02:03:17;18.80;99.90
47660;DHT22;33403;43.608;1.458;2023-08-06T02:05:42;18.80;99.90
47660;DHT22;33403;43.608;1.458;2023-08-06T02:08:08;18.70;99.90
47660;DHT22;33403;43.608;1.458;2023-08-06T02:10:34;18.70;99.90
47660;DHT22;33403;43.608;1.458;2023-08-06T02:12:59;18.70;99.90
47660;DHT22;33403;43.608;1.458;2023-08-06T02:15:25;18.70;99.90
47660;DHT22;33403;43.608;1.458;2023-08-06T02:17:51;18.60;99.90
47660;DHT22;33403;43.608;1.458;2023-08-06T02:20:16;18.70;99.90
47660;DHT22;33403;43.608;1.458;2023-08-06T02:22:42;18.70;99.90
47660;DHT22;33403;43.608;1.458;2023-08-06T02:25:08;18.70;99.90
47660;DHT22;33403;43.608;1.458;2023-08-06T02:27:33;18.70;99.90
47660;DHT22;33403;43.608;1.458;2023-08-06T02:29:59;18.70;99.90
47660;DHT22;33403;43.608;1.458;2023-08-06T02:32:24;18.80;99.90
47660;DHT22;33403;43.608;1.458;2023-08-06T02:34:50;18.80;99.90
47660;DHT22;33403;43.608;1.458;2023-08-06T02:37:16;18.80;99.90
47660;DHT22;33403;43.608;1.458;2023-08-06T02:39:41;18.80;99.90
47660;DHT22;33403;43.608;1.458;2023-08-06T02:42:08;18.80;99.90
47660;DHT22;33403;43.608;1.458;2023-08-06T02:44:35;18.80;99.90
47660;DHT22;33403;43.608;1.458;2023-08-06T02:47:01;18.80;99.90
47660;DHT22;33403;43.608;1.458;2023-08-06T02:49:27;18.70;99.90
47660;DHT22;33403;43.608;1.458;2023-08-06T02:51:52;18.70;99.90
47660;DHT22;33403;43.608;1.458;2023-08-06T02:54:19;18.70;99.90
47660;DHT22;33403;43.608;1.458;2023-08-06T02:56:47;18.70;99.90
47660;DHT22;33403;43.608;1.458;2023-08-06T02:59:13;18.60;99.90
47660;DHT22;33403;43.608;1.458;2023-08-06T03:01:39;18.60;99.90
47660;DHT22;33403;43.608;1.458;2023-08-06T03:04:05;18.60;99.90
47660;DHT22;33403;43.608;1.458;2023-08-06T03:06:31;18.60;99.90
47660;DHT22;33403;43.608;1.458;2023-08-06T03:08:57;18.70;99.90
47660;DHT22;33403;43.608;1.458;2023-08-06T03:11:22;18.70;99.90
47660;DHT22;33403;43.608;1.458;2023-08-06T03:13:48;18.60;99.90
47660;DHT22;33403;43.608;1.458;2023-08-06T03:16:14;18.70;99.90
47660;DHT22;33403;43.608;1.458;2023-08-06T03:18:40;18.70;99.90
47660;DHT22;33403;43.608;1.458;2023-08-06T03:21:05;18.60;99.90
47660;DHT22;33403;43.608;1.458;2023-08-06T03:23:31;18.60;99.90
47660;DHT22;33403;43.608;1.458;2023-08-06T03:26:01;18.70;99.90
47660;DHT22;33403;43.608;1.458;2023-08-06T03:28:28;18.70;99.90
47660;DHT22;33403;43.608;1.458;2023-08-06T03:31:03;18.60;99.90
47660;DHT22;33403;43.608;1.458;2023-08-06T03:33:29;18.60;99.90
47660;DHT22;33403;43.608;1.458;2023-08-06T03:35:55;18.60;99.90
47660;DHT22;33403;43.608;1.458;2023-08-06T03:38:21;18.60;99.90
47660;DHT22;33403;43.608;1.458;2023-08-06T03:40:48;18.50;99.90
47660;DHT22;33403;43.608;1.458;2023-08-06T03:43:13;18.60;99.90
47660;DHT22;33403;43.608;1.458;2023-08-06T03:45:40;18.50;99.90
47660;DHT22;33403;43.608;1.458;2023-08-06T03:48:06;18.50;99.90
47660;DHT22;33403;43.608;1.458;2023-08-06T03:50:31;18.50;99.90
47660;DHT22;33403;43.608;1.458;2023-08-06T03:52:57;18.50;99.90
47660;DHT22;33403;43.608;1.458;2023-08-06T03:55:23;18.50;99.90
47660;DHT22;33403;43.608;1.458;2023-08-06T03:57:48;18.50;99.90
47660;DHT22;33403;43.608;1.458;2023-08-06T04:00:14;18.50;99.90
47660;DHT22;33403;43.608;1.458;2023-08-06T04:02:40;18.50;99.90
47660;DHT22;33403;43.608;1.458;2023-08-06T04:05:05;18.50;99.90
47660;DHT22;33403;43.608;1.458;2023-08-06T04:07:31;18.50;99.90
47660;DHT22;33403;43.608;1.458;2023-08-06T04:09:59;18.50;99.90
47660;DHT22;33403;43.608;1.458;2023-08-06T04:12:25;18.50;99.90
47660;DHT22;33403;43.608;1.458;2023-08-06T04:14:51;18.40;99.90
47660;DHT22;33403;43.608;1.458;2023-08-06T04:17:18;18.50;99.90
47660;DHT22;33403;43.608;1.458;2023-08-06T04:19:47;18.50;99.90
47660;DHT22;33403;43.608;1.458;2023-08-06T04:22:13;18.50;99.90
47660;DHT22;33403;43.608;1.458;2023-08-06T04:24:38;18.50;99.90
47660;DHT22;33403;43.608;1.458;2023-08-06T04:27:04;18.50;99.90
47660;DHT22;33403;43.608;1.458;2023-08-06T04:29:30;18.40;99.90
47660;DHT22;33403;43.608;1.458;2023-08-06T04:31:56;18.40;99.90
47660;DHT22;33403;43.608;1.458;2023-08-06T04:34:21;18.40;99.90
47660;DHT22;33403;43.608;1.458;2023-08-06T04:36:47;18.40;99.90
47660;DHT22;33403;43.608;1.458;2023-08-06T04:39:12;18.30;99.90
47660;DHT22;33403;43.608;1.458;2023-08-06T04:41:39;18.40;99.90
47660;DHT22;33403;43.608;1.458;2023-08-06T04:44:04;18.40;99.90
47660;DHT22;33403;43.608;1.458;2023-08-06T04:46:30;18.40;99.90
47660;DHT22;33403;43.608;1.458;2023-08-06T04:48:56;18.30;99.90
47660;DHT22;33403;43.608;1.458;2023-08-06T04:51:21;18.40;99.90
47660;DHT22;33403;43.608;1.458;2023-08-06T04:53:47;18.40;99.90
47660;DHT22;33403;43.608;1.458;2023-08-06T04:56:12;18.40;99.90
47660;DHT22;33403;43.608;1.458;2023-08-06T04:58:38;18.30;99.90
47660;DHT22;33403;43.608;1.458;2023-08-06T05:01:04;18.40;99.90
47660;DHT22;33403;43.608;1.458;2023-08-06T05:03:29;18.40;99.90
47660;DHT22;33403;43.608;1.458;2023-08-06T05:05:55;18.30;99.90
47660;DHT22;33403;43.608;1.458;2023-08-06T05:08:21;18.30;99.90
47660;DHT22;33403;43.608;1.458;2023-08-06T05:10:46;18.40;99.90
47660;DHT22;33403;43.608;1.458;2023-08-06T05:13:12;18.40;99.90
47660;DHT22;33403;43.608;1.458;2023-08-06T05:15:38;18.30;99.90
47660;DHT22;33403;43.608;1.458;2023-08-06T05:18:05;18.30;99.90
47660;DHT22;33403;43.608;1.458;2023-08-06T05:20:30;18.30;99.90
47660;DHT22;33403;43.608;1.458;2023-08-06T05:22:56;18.30;99.90
47660;DHT22;33403;43.608;1.458;2023-08-06T05:25:22;18.30;99.90
47660;DHT22;33403;43.608;1.458;2023-08-06T05:27:47;18.40;99.90
47660;DHT22;33403;43.608;1.458;2023-08-06T05:30:13;18.40;99.90
47660;DHT22;33403;43.608;1.458;2023-08-06T05:32:39;18.40;99.90
47660;DHT22;33403;43.608;1.458;2023-08-06T05:35:04;18.40;99.90
47660;DHT22;33403;43.608;1.458;2023-08-06T05:37:31;18.40;99.90
47660;DHT22;33403;43.608;1.458;2023-08-06T05:39:57;18.30;99.90
47660;DHT22;33403;43.608;1.458;2023-08-06T05:42:22;18.40;99.90
47660;DHT22;33403;43.608;1.458;2023-08-06T05:44:48;18.40;99.90
47660;DHT22;33403;43.608;1.458;2023-08-06T05:47:13;18.50;99.90
47660;DHT22;33403;43.608;1.458;2023-08-06T05:49:39;18.40;99.90
47660;DHT22;33403;43.608;1.458;2023-08-06T05:52:05;18.40;99.90
47660;DHT22;33403;43.608;1.458;2023-08-06T05:54:32;18.50;99.90
47660;DHT22;33403;43.608;1.458;2023-08-06T05:56:57;18.50;99.90
47660;DHT22;33403;43.608;1.458;2023-08-06T05:59:23;18.50;99.90
47660;DHT22;33403;43.608;1.458;2023-08-06T06:01:48;18.50;99.90
47660;DHT22;33403;43.608;1.458;2023-08-06T06:04:14;18.50;99.90
47660;DHT22;33403;43.608;1.458;2023-08-06T06:06:40;18.50;99.90
47660;DHT22;33403;43.608;1.458;2023-08-06T06:09:07;18.50;99.90
47660;DHT22;33403;43.608;1.458;2023-08-06T06:11:33;18.50;99.90
47660;DHT22;33403;43.608;1.458;2023-08-06T06:13:58;18.50;99.90
47660;DHT22;33403;43.608;1.458;2023-08-06T06:16:24;18.50;99.90
47660;DHT22;33403;43.608;1.458;2023-08-06T06:18:50;18.60;99.90
47660;DHT22;33403;43.608;1.458;2023-08-06T06:21:15;18.60;99.90
47660;DHT22;33403;43.608;1.458;2023-08-06T06:23:41;18.70;99.90
47660;DHT22;33403;43.608;1.458;2023-08-06T06:26:06;18.60;99.90
47660;DHT22;33403;43.608;1.458;2023-08-06T06:28:32;18.60;99.90
47660;DHT22;33403;43.608;1.458;2023-08-06T06:31:01;18.70;99.90
47660;DHT22;33403;43.608;1.458;2023-08-06T06:33:27;18.80;99.90
47660;DHT22;33403;43.608;1.458;2023-08-06T06:35:53;18.70;99.90
47660;DHT22;33403;43.608;1.458;2023-08-06T06:38:18;18.70;99.90
47660;DHT22;33403;43.608;1.458;2023-08-06T06:40:46;18.70;99.90
47660;DHT22;33403;43.608;1.458;2023-08-06T06:43:18;18.70;99.90
47660;DHT22;33403;43.608;1.458;2023-08-06T06:45:43;18.70;99.90
47660;DHT22;33403;43.608;1.458;2023-08-06T06:48:09;18.70;99.90
47660;DHT22;33403;43.608;1.458;2023-08-06T06:50:35;18.80;99.90
47660;DHT22;33403;43.608;1.458;2023-08-06T06:53:01;18.80;99.90
47660;DHT22;33403;43.608;1.458;2023-08-06T06:55:27;18.80;99.90
47660;DHT22;33403;43.608;1.458;2023-08-06T06:57:53;18.90;99.90
47660;DHT22;33403;43.608;1.458;2023-08-06T07:00:18;19.00;99.90
47660;DHT22;33403;43.608;1.458;2023-08-06T07:02:44;19.00;99.90
47660;DHT22;33403;43.608;1.458;2023-08-06T07:05:10;19.10;99.90
47660;DHT22;33403;43.608;1.458;2023-08-06T07:07:35;19.20;99.90
47660;DHT22;33403;43.608;1.458;2023-08-06T07:10:03;19.30;99.90
47660;DHT22;33403;43.608;1.458;2023-08-06T07:12:28;19.40;99.90
47660;DHT22;33403;43.608;1.458;2023-08-06T07:14:54;19.30;99.90
47660;DHT22;33403;43.608;1.458;2023-08-06T07:17:20;19.40;99.90
47660;DHT22;33403;43.608;1.458;2023-08-06T07:19:46;19.60;99.90
47660;DHT22;33403;43.608;1.458;2023-08-06T07:22:11;19.70;99.90
47660;DHT22;33403;43.608;1.458;2023-08-06T07:24:37;19.70;99.90
47660;DHT22;33403;43.608;1.458;2023-08-06T07:27:03;19.70;99.90
47660;DHT22;33403;43.608;1.458;2023-08-06T07:29:29;19.80;99.90
47660;DHT22;33403;43.608;1.458;2023-08-06T07:31:54;20.10;99.90
47660;DHT22;33403;43.608;1.458;2023-08-06T07:34:21;20.20;99.90
47660;DHT22;33403;43.608;1.458;2023-08-06T07:36:47;20.30;99.90
47660;DHT22;33403;43.608;1.458;2023-08-06T07:39:12;20.40;99.60
47660;DHT22;33403;43.608;1.458;2023-08-06T07:41:38;20.30;97.60
47660;DHT22;33403;43.608;1.458;2023-08-06T07:44:04;20.20;99.40
47660;DHT22;33403;43.608;1.458;2023-08-06T07:46:30;20.30;98.60
47660;DHT22;33403;43.608;1.458;2023-08-06T07:48:55;20.30;98.60
47660;DHT22;33403;43.608;1.458;2023-08-06T07:51:21;20.40;98.40
47660;DHT22;33403;43.608;1.458;2023-08-06T07:53:46;20.40;98.50
47660;DHT22;33403;43.608;1.458;2023-08-06T07:56:12;20.40;98.30
47660;DHT22;33403;43.608;1.458;2023-08-06T07:58:38;20.50;98.60
47660;DHT22;33403;43.608;1.458;2023-08-06T08:01:03;20.40;97.40
47660;DHT22;33403;43.608;1.458;2023-08-06T08:03:31;20.50;98.20
47660;DHT22;33403;43.608;1.458;2023-08-06T08:05:56;20.70;97.40
47660;DHT22;33403;43.608;1.458;2023-08-06T08:08:23;20.70;97.50
47660;DHT22;33403;43.608;1.458;2023-08-06T08:10:49;20.70;97.00
47660;DHT22;33403;43.608;1.458;2023-08-06T08:13:14;20.80;97.00
47660;DHT22;33403;43.608;1.458;2023-08-06T08:15:40;20.90;96.20
47660;DHT22;33403;43.608;1.458;2023-08-06T08:18:06;21.00;95.50
47660;DHT22;33403;43.608;1.458;2023-08-06T08:20:31;20.90;95.40
47660;DHT22;33403;43.608;1.458;2023-08-06T08:23:01;21.00;95.50
47660;DHT22;33403;43.608;1.458;2023-08-06T08:25:27;21.10;95.10
47660;DHT22;33403;43.608;1.458;2023-08-06T08:27:54;21.00;95.70
47660;DHT22;33403;43.608;1.458;2023-08-06T08:30:21;21.10;94.60
47660;DHT22;33403;43.608;1.458;2023-08-06T08:32:47;21.10;94.10
47660;DHT22;33403;43.608;1.458;2023-08-06T08:35:14;21.20;94.10
47660;DHT22;33403;43.608;1.458;2023-08-06T08:37:41;21.30;94.40
47660;DHT22;33403;43.608;1.458;2023-08-06T08:40:08;21.30;93.60
47660;DHT22;33403;43.608;1.458;2023-08-06T08:42:34;21.40;93.80
47660;DHT22;33403;43.608;1.458;2023-08-06T08:45:00;21.20;93.40
47660;DHT22;33403;43.608;1.458;2023-08-06T08:47:25;21.20;93.70
47660;DHT22;33403;43.608;1.458;2023-08-06T08:49:54;21.20;93.10
47660;DHT22;33403;43.608;1.458;2023-08-06T08:52:23;21.30;92.60
47660;DHT22;33403;43.608;1.458;2023-08-06T08:54:51;21.30;92.10
47660;DHT22;33403;43.608;1.458;2023-08-06T08:57:18;21.30;92.40
47660;DHT22;33403;43.608;1.458;2023-08-06T08:59:44;21.20;91.70
47660;DHT22;33403;43.608;1.458;2023-08-06T09:02:13;21.10;92.70
47660;DHT22;33403;43.608;1.458;2023-08-06T09:04:41;21.30;92.50
47660;DHT22;33403;43.608;1.458;2023-08-06T09:07:09;21.30;91.90
47660;DHT22;33403;43.608;1.458;2023-08-06T09:09:39;21.50;92.30
47660;DHT22;33403;43.608;1.458;2023-08-06T09:12:12;21.70;92.00
47660;DHT22;33403;43.608;1.458;2023-08-06T09:14:38;21.60;91.60
47660;DHT22;33403;43.608;1.458;2023-08-06T09:17:04;21.60;90.60
47660;DHT22;33403;43.608;1.458;2023-08-06T09:19:31;21.50;91.10
47660;DHT22;33403;43.608;1.458;2023-08-06T09:21:57;21.40;91.30
47660;DHT22;33403;43.608;1.458;2023-08-06T09:24:23;21.30;90.50
47660;DHT22;33403;43.608;1.458;2023-08-06T09:26:49;21.70;91.20
47660;DHT22;33403;43.608;1.458;2023-08-06T09:29:14;22.00;90.40
47660;DHT22;33403;43.608;1.458;2023-08-06T09:31:44;22.20;90.30
47660;DHT22;33403;43.608;1.458;2023-08-06T09:36:42;22.40;89.80
47660;DHT22;33403;43.608;1.458;2023-08-06T09:39:21;22.60;90.20
47660;DHT22;33403;43.608;1.458;2023-08-06T09:41:47;22.30;88.80
47660;DHT22;33403;43.608;1.458;2023-08-06T09:44:17;22.30;89.20
47660;DHT22;33403;43.608;1.458;2023-08-06T09:46:50;22.10;85.70
47660;DHT22;33403;43.608;1.458;2023-08-06T09:49:18;21.90;89.10
47660;DHT22;33403;43.608;1.458;2023-08-06T09:51:45;22.00;88.70
47660;DHT22;33403;43.608;1.458;2023-08-06T09:54:15;22.40;88.10
47660;DHT22;33403;43.608;1.458;2023-08-06T09:56:42;22.60;86.00
47660;DHT22;33403;43.608;1.458;2023-08-06T09:59:08;22.40;85.30
47660;DHT22;33403;43.608;1.458;2023-08-06T10:01:35;22.40;85.20
47660;DHT22;33403;43.608;1.458;2023-08-06T10:04:05;22.50;87.00
47660;DHT22;33403;43.608;1.458;2023-08-06T10:06:36;22.60;88.40
47660;DHT22;33403;43.608;1.458;2023-08-06T10:09:03;22.80;85.90
47660;DHT22;33403;43.608;1.458;2023-08-06T10:11:29;22.60;80.90
47660;DHT22;33403;43.608;1.458;2023-08-06T10:14:41;22.50;83.50
47660;DHT22;33403;43.608;1.458;2023-08-06T10:16:48;22.70;82.20
47660;DHT22;33403;43.608;1.458;2023-08-06T10:19:15;22.80;83.60
47660;DHT22;33403;43.608;1.458;2023-08-06T10:21:42;22.50;83.00
47660;DHT22;33403;43.608;1.458;2023-08-06T10:24:27;22.20;84.40
47660;DHT22;33403;43.608;1.458;2023-08-06T10:26:58;22.70;85.00
47660;DHT22;33403;43.608;1.458;2023-08-06T10:29:37;22.80;83.10
47660;DHT22;33403;43.608;1.458;2023-08-06T10:32:03;22.80;81.90
47660;DHT22;33403;43.608;1.458;2023-08-06T10:34:58;22.90;77.20
47660;DHT22;33403;43.608;1.458;2023-08-06T10:37:37;22.90;80.30
47660;DHT22;33403;43.608;1.458;2023-08-06T10:40:03;22.80;76.00
47660;DHT22;33403;43.608;1.458;2023-08-06T10:42:31;22.80;76.00
47660;DHT22;33403;43.608;1.458;2023-08-06T10:47:42;22.80;78.60
47660;DHT22;33403;43.608;1.458;2023-08-06T10:50:14;22.90;78.60
47660;DHT22;33403;43.608;1.458;2023-08-06T10:52:44;22.90;75.70
47660;DHT22;33403;43.608;1.458;2023-08-06T10:55:11;23.00;79.00
47660;DHT22;33403;43.608;1.458;2023-08-06T10:57:36;23.10;79.00
47660;DHT22;33403;43.608;1.458;2023-08-06T11:00:06;23.20;79.50
47660;DHT22;33403;43.608;1.458;2023-08-06T11:02:36;23.10;78.00
47660;DHT22;33403;43.608;1.458;2023-08-06T11:05:09;23.20;78.20
47660;DHT22;33403;43.608;1.458;2023-08-06T11:07:36;23.10;72.70
47660;DHT22;33403;43.608;1.458;2023-08-06T11:10:06;23.20;74.30
47660;DHT22;33403;43.608;1.458;2023-08-06T11:12:33;23.30;74.20
47660;DHT22;33403;43.608;1.458;2023-08-06T11:14:59;23.20;74.70
47660;DHT22;33403;43.608;1.458;2023-08-06T11:17:27;22.90;77.20
47660;DHT22;33403;43.608;1.458;2023-08-06T11:19:53;22.80;74.50
47660;DHT22;33403;43.608;1.458;2023-08-06T11:22:21;22.80;74.40
47660;DHT22;33403;43.608;1.458;2023-08-06T11:24:50;23.00;75.00
47660;DHT22;33403;43.608;1.458;2023-08-06T11:27:16;23.10;75.80
47660;DHT22;33403;43.608;1.458;2023-08-06T11:29:43;23.10;73.70
47660;DHT22;33403;43.608;1.458;2023-08-06T11:32:09;23.10;75.70
47660;DHT22;33403;43.608;1.458;2023-08-06T11:34:36;23.20;75.40
47660;DHT22;33403;43.608;1.458;2023-08-06T11:37:05;23.10;76.90
47660;DHT22;33403;43.608;1.458;2023-08-06T11:39:35;23.10;77.10
47660;DHT22;33403;43.608;1.458;2023-08-06T11:42:03;23.40;75.90
47660;DHT22;33403;43.608;1.458;2023-08-06T11:44:34;23.50;75.90
47660;DHT22;33403;43.608;1.458;2023-08-06T11:47:02;23.30;69.90
47660;DHT22;33403;43.608;1.458;2023-08-06T11:49:48;22.90;72.70
47660;DHT22;33403;43.608;1.458;2023-08-06T11:52:25;22.80;73.80
47660;DHT22;33403;43.608;1.458;2023-08-06T11:55:03;23.00;73.10
47660;DHT22;33403;43.608;1.458;2023-08-06T11:57:32;22.90;72.20
47660;DHT22;33403;43.608;1.458;2023-08-06T12:00:10;23.00;74.10
47660;DHT22;33403;43.608;1.458;2023-08-06T12:02:39;22.70;74.10
47660;DHT22;33403;43.608;1.458;2023-08-06T12:05:17;22.80;75.10
47660;DHT22;33403;43.608;1.458;2023-08-06T12:07:46;23.10;71.10
47660;DHT22;33403;43.608;1.458;2023-08-06T12:10:13;23.20;74.50
47660;DHT22;33403;43.608;1.458;2023-08-06T12:12:39;23.20;72.70
47660;DHT22;33403;43.608;1.458;2023-08-06T12:15:07;23.30;72.00
47660;DHT22;33403;43.608;1.458;2023-08-06T12:17:33;23.30;69.60
47660;DHT22;33403;43.608;1.458;2023-08-06T12:19:59;23.30;70.10
47660;DHT22;33403;43.608;1.458;2023-08-06T12:22:25;23.30;73.20
47660;DHT22;33403;43.608;1.458;2023-08-06T12:24:51;23.30;68.80
47660;DHT22;33403;43.608;1.458;2023-08-06T12:27:17;23.20;72.00
47660;DHT22;33403;43.608;1.458;2023-08-06T12:29:44;23.40;69.70
47660;DHT22;33403;43.608;1.458;2023-08-06T12:32:10;23.60;70.80
47660;DHT22;33403;43.608;1.458;2023-08-06T12:34:38;23.70;70.10
47660;DHT22;33403;43.608;1.458;2023-08-06T12:37:04;23.80;69.40
47660;DHT22;33403;43.608;1.458;2023-08-06T12:39:30;23.80;69.10
47660;DHT22;33403;43.608;1.458;2023-08-06T12:41:56;23.80;70.90
47660;DHT22;33403;43.608;1.458;2023-08-06T12:44:23;23.80;67.50
47660;DHT22;33403;43.608;1.458;2023-08-06T12:46:50;23.60;66.30
47660;DHT22;33403;43.608;1.458;2023-08-06T12:49:16;23.20;68.50
47660;DHT22;33403;43.608;1.458;2023-08-06T12:51:42;23.10;70.90
47660;DHT22;33403;43.608;1.458;2023-08-06T12:54:08;23.10;71.30
47660;DHT22;33403;43.608;1.458;2023-08-06T12:56:34;23.20;68.60
47660;DHT22;33403;43.608;1.458;2023-08-06T12:59:00;23.50;69.80
47660;DHT22;33403;43.608;1.458;2023-08-06T13:01:25;23.50;65.40
47660;DHT22;33403;43.608;1.458;2023-08-06T13:03:51;23.60;68.30
47660;DHT22;33403;43.608;1.458;2023-08-06T13:06:17;23.60;65.90
47660;DHT22;33403;43.608;1.458;2023-08-06T13:08:42;23.70;69.70
47660;DHT22;33403;43.608;1.458;2023-08-06T13:11:08;23.80;70.20
47660;DHT22;33403;43.608;1.458;2023-08-06T13:13:34;23.70;67.10
47660;DHT22;33403;43.608;1.458;2023-08-06T13:15:59;23.70;67.80
47660;DHT22;33403;43.608;1.458;2023-08-06T13:18:25;23.80;67.90
47660;DHT22;33403;43.608;1.458;2023-08-06T13:20:53;23.70;67.40
47660;DHT22;33403;43.608;1.458;2023-08-06T13:23:20;23.60;70.10
47660;DHT22;33403;43.608;1.458;2023-08-06T13:25:45;23.50;70.70
47660;DHT22;33403;43.608;1.458;2023-08-06T13:28:11;23.40;67.50
47660;DHT22;33403;43.608;1.458;2023-08-06T13:30:37;23.50;69.50
47660;DHT22;33403;43.608;1.458;2023-08-06T13:33:10;23.60;66.20
47660;DHT22;33403;43.608;1.458;2023-08-06T13:35:37;23.60;67.80
47660;DHT22;33403;43.608;1.458;2023-08-06T13:38:02;23.50;69.00
47660;DHT22;33403;43.608;1.458;2023-08-06T13:40:29;23.50;67.90
47660;DHT22;33403;43.608;1.458;2023-08-06T13:42:55;23.60;67.90
47660;DHT22;33403;43.608;1.458;2023-08-06T13:45:21;23.70;68.10
47660;DHT22;33403;43.608;1.458;2023-08-06T13:47:47;23.60;68.60
47660;DHT22;33403;43.608;1.458;2023-08-06T13:50:13;23.50;70.00
47660;DHT22;33403;43.608;1.458;2023-08-06T13:52:39;23.60;70.60
47660;DHT22;33403;43.608;1.458;2023-08-06T13:55:05;23.50;70.60
47660;DHT22;33403;43.608;1.458;2023-08-06T13:57:31;23.50;72.20
47660;DHT22;33403;43.608;1.458;2023-08-06T13:59:57;23.60;72.10
47660;DHT22;33403;43.608;1.458;2023-08-06T14:02:22;23.90;68.40
47660;DHT22;33403;43.608;1.458;2023-08-06T14:04:48;23.90;68.80
47660;DHT22;33403;43.608;1.458;2023-08-06T14:07:14;23.90;70.40
47660;DHT22;33403;43.608;1.458;2023-08-06T14:09:40;24.00;69.70
47660;DHT22;33403;43.608;1.458;2023-08-06T14:12:06;24.10;68.80
47660;DHT22;33403;43.608;1.458;2023-08-06T14:14:31;24.30;68.40
47660;DHT22;33403;43.608;1.458;2023-08-06T14:16:57;24.20;66.20
47660;DHT22;33403;43.608;1.458;2023-08-06T14:19:23;24.10;68.80
47660;DHT22;33403;43.608;1.458;2023-08-06T14:21:49;24.20;69.10
47660;DHT22;33403;43.608;1.458;2023-08-06T14:24:15;24.40;68.30
47660;DHT22;33403;43.608;1.458;2023-08-06T14:26:40;24.30;67.40
47660;DHT22;33403;43.608;1.458;2023-08-06T14:29:06;24.20;67.90
47660;DHT22;33403;43.608;1.458;2023-08-06T14:31:32;24.00;66.40
47660;DHT22;33403;43.608;1.458;2023-08-06T14:33:57;23.90;66.60
47660;DHT22;33403;43.608;1.458;2023-08-06T14:36:23;23.90;66.80
47660;DHT22;33403;43.608;1.458;2023-08-06T14:38:49;23.80;67.00
47660;DHT22;33403;43.608;1.458;2023-08-06T14:41:14;23.90;64.70
47660;DHT22;33403;43.608;1.458;2023-08-06T14:43:40;23.90;65.80
47660;DHT22;33403;43.608;1.458;2023-08-06T14:46:05;23.90;66.80
47660;DHT22;33403;43.608;1.458;2023-08-06T14:48:31;24.00;64.90
47660;DHT22;33403;43.608;1.458;2023-08-06T14:50:57;23.90;66.20
47660;DHT22;33403;43.608;1.458;2023-08-06T14:53:23;23.60;67.90
47660;DHT22;33403;43.608;1.458;2023-08-06T14:55:48;23.40;67.20
47660;DHT22;33403;43.608;1.458;2023-08-06T14:58:14;23.40;68.40
47660;DHT22;33403;43.608;1.458;2023-08-06T15:00:40;23.50;65.00
47660;DHT22;33403;43.608;1.458;2023-08-06T15:03:06;23.50;68.20
47660;DHT22;33403;43.608;1.458;2023-08-06T15:05:31;23.60;66.30
47660;DHT22;33403;43.608;1.458;2023-08-06T15:07:57;23.60;65.30
47660;DHT22;33403;43.608;1.458;2023-08-06T15:10:22;23.50;67.10
47660;DHT22;33403;43.608;1.458;2023-08-06T15:12:48;23.60;67.10
47660;DHT22;33403;43.608;1.458;2023-08-06T15:15:14;23.70;65.60
47660;DHT22;33403;43.608;1.458;2023-08-06T15:17:40;23.60;67.40
47660;DHT22;33403;43.608;1.458;2023-08-06T15:20:06;23.40;68.10
47660;DHT22;33403;43.608;1.458;2023-08-06T15:22:32;23.30;67.80
47660;DHT22;33403;43.608;1.458;2023-08-06T15:24:59;23.30;69.00
47660;DHT22;33403;43.608;1.458;2023-08-06T15:27:25;23.30;67.60
47660;DHT22;33403;43.608;1.458;2023-08-06T15:29:51;23.40;68.40
47660;DHT22;33403;43.608;1.458;2023-08-06T15:32:17;23.40;68.70
47660;DHT22;33403;43.608;1.458;2023-08-06T15:34:42;23.50;70.00
47660;DHT22;33403;43.608;1.458;2023-08-06T15:37:08;23.70;68.20
47660;DHT22;33403;43.608;1.458;2023-08-06T15:39:34;23.90;67.90
47660;DHT22;33403;43.608;1.458;2023-08-06T15:41:59;24.00;67.60